Time;durP1;ratioP1;P1;durP2;ratioP2;P2;SDS_P1;SDS_P2;PMS_P1;PMS_P2;Temp;Humidity;BMP_temperature;BMP_pressure;BME280_temperature;BME280_humidity;BME280_pressure;Samples;Min_cycle;Max_cycle;Signal;HPM_P1;HPM_P2
2022/03/10 00:00:48;;;;;;;18.52;13.85;;;6.00;52.70;;;;;;2075617;28;20148;-68
2022/03/10 00:01:49;;;;;;;18.95;14.20;;;6.00;52.60;;;;;;2077400;28;20456;-68
2022/03/10 00:02:49;;;;;;;18.08;13.52;;;6.00;52.50;;;;;;2078543;28;20079;-68
2022/03/10 00:03:50;;;;;;;16.73;12.80;;;6.00;52.50;;;;;;2077053;28;20075;-68
2022/03/10 00:04:50;;;;;;;17.23;14.10;;;6.00;52.50;;;;;;2077034;28;20733;-68
2022/03/10 00:05:51;;;;;;;17.88;14.18;;;6.00;52.60;;;;;;2079820;28;20083;-68
2022/03/10 00:06:51;;;;;;;18.23;13.52;;;6.00;52.70;;;;;;2079723;28;20021;-68
2022/03/10 00:07:52;;;;;;;19.42;13.18;;;6.00;52.60;;;;;;2079065;28;20025;-68
2022/03/10 00:08:52;;;;;;;19.95;13.77;;;5.90;52.40;;;;;;2078103;28;20109;-68
2022/03/10 00:09:53;;;;;;;16.85;13.65;;;5.90;52.50;;;;;;2077484;28;20393;-68
2022/03/10 00:10:53;;;;;;;20.88;14.20;;;5.90;52.40;;;;;;2081182;28;20033;-68
2022/03/10 00:11:54;;;;;;;18.25;13.57;;;5.90;52.40;;;;;;2076918;28;20022;-68
2022/03/10 00:12:54;;;;;;;18.30;13.07;;;6.00;52.20;;;;;;2076550;28;20021;-68
2022/03/10 00:13:55;;;;;;;19.45;13.80;;;6.00;52.10;;;;;;2079753;28;20079;-68
2022/03/10 00:14:55;;;;;;;18.95;14.10;;;6.00;52.10;;;;;;2082935;28;20099;-68
2022/03/10 00:15:57;;;;;;;17.50;13.82;;;6.00;52.10;;;;;;2079452;28;20064;-68
2022/03/10 00:16:58;;;;;;;22.35;13.77;;;6.00;52.00;;;;;;2079647;28;20058;-68
2022/03/10 00:18:02;;;;;;;17.30;13.80;;;6.10;51.90;;;;;;2078545;28;20064;-68
2022/03/10 00:19:02;;;;;;;18.15;12.82;;;6.10;51.80;;;;;;2079568;28;20026;-68
2022/03/10 00:20:04;;;;;;;17.95;12.85;;;6.10;51.70;;;;;;2076353;28;20067;-68
2022/03/10 00:21:04;;;;;;;18.95;13.38;;;6.10;51.50;;;;;;2076530;28;20497;-68
2022/03/10 00:22:05;;;;;;;16.98;12.52;;;6.20;51.60;;;;;;2076265;28;20575;-68
2022/03/10 00:23:06;;;;;;;18.30;13.82;;;6.20;51.60;;;;;;2081091;28;20040;-68
2022/03/10 00:24:06;;;;;;;20.20;13.77;;;6.20;51.60;;;;;;2080367;28;20025;-68
2022/03/10 00:25:08;;;;;;;19.38;13.65;;;6.20;51.80;;;;;;2077355;28;20675;-68
2022/03/10 00:26:09;;;;;;;21.73;14.38;;;6.20;51.80;;;;;;2079263;28;20010;-68
2022/03/10 00:27:09;;;;;;;18.92;13.18;;;6.20;51.60;;;;;;2078800;28;20025;-68
2022/03/10 00:28:10;;;;;;;19.98;13.48;;;6.20;51.60;;;;;;2078529;28;20030;-68
2022/03/10 00:29:10;;;;;;;18.63;13.60;;;6.30;51.60;;;;;;2077988;28;20025;-68
2022/03/10 00:30:11;;;;;;;19.52;13.07;;;6.30;51.50;;;;;;2072327;28;20034;-68
2022/03/10 00:31:12;;;;;;;19.85;14.07;;;6.30;51.50;;;;;;2081597;28;20021;-68
2022/03/10 00:32:12;;;;;;;16.70;13.02;;;6.30;51.40;;;;;;2081226;28;20067;-68
2022/03/10 00:33:14;;;;;;;18.33;13.50;;;6.30;51.40;;;;;;2078893;28;20084;-68
2022/03/10 00:34:14;;;;;;;16.50;13.88;;;6.30;51.40;;;;;;2079108;28;20129;-68
2022/03/10 00:35:23;;;;;;;18.17;12.93;;;6.30;51.20;;;;;;2073116;28;20049;-68
2022/03/10 00:36:24;;;;;;;18.73;13.88;;;6.30;51.20;;;;;;2079459;28;20650;-68
2022/03/10 00:37:25;;;;;;;20.13;14.20;;;6.30;51.20;;;;;;2077227;28;20444;-68
2022/03/10 00:38:25;;;;;;;22.13;13.43;;;6.30;51.30;;;;;;2079063;28;20029;-68
2022/03/10 00:39:26;;;;;;;17.90;13.77;;;6.30;51.30;;;;;;2083897;28;20064;-68
2022/03/10 00:40:27;;;;;;;17.52;13.90;;;6.30;51.20;;;;;;2082231;28;20501;-68
2022/03/10 00:41:28;;;;;;;18.17;13.55;;;6.30;51.30;;;;;;2081412;28;20038;-68
2022/03/10 00:42:35;;;;;;;19.08;14.35;;;6.30;51.50;;;;;;2080262;28;20037;-68
2022/03/10 00:43:36;;;;;;;18.85;13.75;;;6.30;51.70;;;;;;2078796;28;20025;-68
2022/03/10 00:44:36;;;;;;;19.85;12.93;;;6.30;51.70;;;;;;2077710;28;20092;-68
2022/03/10 00:45:37;;;;;;;17.50;13.40;;;6.30;51.90;;;;;;2079134;28;20108;-68
2022/03/10 00:46:38;;;;;;;19.27;14.07;;;6.20;52.00;;;;;;2079474;28;20877;-68
2022/03/10 00:47:39;;;;;;;16.15;12.90;;;6.20;52.00;;;;;;2080233;28;20030;-68
2022/03/10 00:48:40;;;;;;;17.50;13.45;;;6.20;52.00;;;;;;2082052;28;20160;-68
2022/03/10 00:49:40;;;;;;;17.13;13.57;;;6.20;52.10;;;;;;2080118;28;20026;-68
2022/03/10 00:50:41;;;;;;;17.23;13.43;;;6.20;52.20;;;;;;2079511;28;20112;-68
2022/03/10 00:51:41;;;;;;;17.83;13.75;;;6.10;52.20;;;;;;2076521;28;20477;-68
2022/03/10 00:52:44;;;;;;;19.42;14.38;;;6.10;52.40;;;;;;2078828;28;20020;-68
2022/03/10 00:53:45;;;;;;;21.98;14.05;;;6.10;52.70;;;;;;2080508;28;20032;-68
2022/03/10 00:54:45;;;;;;;17.90;14.85;;;6.10;52.70;;;;;;2080704;28;20075;-68
2022/03/10 00:55:46;;;;;;;21.10;13.55;;;6.10;53.00;;;;;;2073089;28;20049;-68
2022/03/10 00:56:46;;;;;;;20.42;14.68;;;6.00;53.10;;;;;;2073332;28;20025;-68
2022/03/10 00:57:49;;;;;;;17.45;13.52;;;6.00;53.10;;;;;;2075463;28;20047;-68
2022/03/10 00:58:49;;;;;;;22.73;14.32;;;6.00;53.10;;;;;;2074334;28;20529;-68
2022/03/10 00:59:50;;;;;;;17.02;13.68;;;6.00;53.30;;;;;;2078569;28;20390;-68
2022/03/10 01:00:53;;;;;;;23.85;15.23;;;6.00;53.40;;;;;;2078072;28;20033;-68
2022/03/10 01:01:54;;;;;;;19.63;14.23;;;6.00;53.30;;;;;;2081165;28;20025;-68
2022/03/10 01:02:56;;;;;;;22.48;14.60;;;5.90;53.30;;;;;;2081117;28;20096;-68
2022/03/10 01:03:56;;;;;;;21.80;15.10;;;5.90;53.50;;;;;;2079756;28;20041;-68
2022/03/10 01:04:57;;;;;;;20.90;14.77;;;5.90;53.30;;;;;;2079933;28;20092;-68
2022/03/10 01:05:58;;;;;;;19.80;15.32;;;5.80;53.50;;;;;;2080817;28;20052;-68
2022/03/10 01:06:58;;;;;;;18.83;13.68;;;5.80;53.80;;;;;;2079131;28;20026;-68
2022/03/10 01:07:59;;;;;;;18.15;14.80;;;5.80;53.90;;;;;;2077956;28;20040;-68
2022/03/10 01:08:59;;;;;;;19.83;14.10;;;5.80;53.80;;;;;;2076765;28;20068;-68
2022/03/10 01:10:05;;;;;;;18.05;14.75;;;5.80;53.90;;;;;;2081450;28;20021;-68
2022/03/10 01:11:06;;;;;;;18.70;14.63;;;5.70;54.10;;;;;;2082292;28;20032;-68
2022/03/10 01:12:06;;;;;;;18.40;14.93;;;5.70;54.10;;;;;;2079369;28;20029;-68
2022/03/10 01:13:18;;;;;;;19.02;14.27;;;5.70;54.20;;;;;;2079839;28;20089;-68
2022/03/10 01:14:18;;;;;;;17.92;15.32;;;5.60;54.40;;;;;;2084203;28;20642;-68
2022/03/10 01:15:23;;;;;;;18.13;14.43;;;5.60;54.40;;;;;;2080895;28;20087;-68
2022/03/10 01:16:23;;;;;;;23.77;15.02;;;5.60;54.30;;;;;;2078652;28;20482;-68
2022/03/10 01:17:24;;;;;;;19.73;14.95;;;5.60;54.40;;;;;;2085762;28;20103;-68
2022/03/10 01:18:24;;;;;;;19.30;15.30;;;5.50;54.60;;;;;;2084441;28;20164;-68
2022/03/10 01:19:25;;;;;;;23.73;16.40;;;5.50;54.80;;;;;;2082647;28;20033;-68
2022/03/10 01:20:26;;;;;;;19.40;14.85;;;5.50;54.90;;;;;;2077372;28;20048;-68
2022/03/10 01:21:27;;;;;;;18.88;14.70;;;5.50;54.90;;;;;;2082988;28;20029;-68
2022/03/10 01:22:28;;;;;;;17.73;14.45;;;5.50;55.10;;;;;;2074943;28;20117;-68
2022/03/10 01:23:28;;;;;;;23.13;14.98;;;5.40;55.10;;;;;;2080371;28;20037;-68
2022/03/10 01:24:29;;;;;;;20.55;15.07;;;5.40;55.10;;;;;;2078105;28;20030;-68
2022/03/10 01:25:29;;;;;;;18.67;14.15;;;5.40;55.30;;;;;;2079682;28;20037;-68
2022/03/10 01:26:30;;;;;;;18.58;13.70;;;5.40;55.50;;;;;;2083154;28;20022;-68
2022/03/10 01:27:30;;;;;;;19.80;15.30;;;5.30;55.40;;;;;;2080898;28;20060;-68
2022/03/10 01:28:31;;;;;;;20.48;15.70;;;5.30;55.60;;;;;;2077308;28;20486;-68
2022/03/10 01:29:32;;;;;;;20.10;15.07;;;5.30;55.70;;;;;;2080369;28;20034;-68
2022/03/10 01:30:32;;;;;;;22.13;16.30;;;5.30;55.80;;;;;;2083221;28;20399;-68
2022/03/10 01:31:33;;;;;;;22.58;16.17;;;5.20;55.70;;;;;;2079654;28;20034;-68
2022/03/10 01:32:35;;;;;;;21.15;15.27;;;5.20;55.90;;;;;;2080400;28;20079;-68
2022/03/10 01:33:35;;;;;;;22.25;15.50;;;5.20;56.00;;;;;;2078266;28;20072;-68
2022/03/10 01:34:36;;;;;;;21.60;15.55;;;5.20;56.20;;;;;;2075196;28;20030;-68
2022/03/10 01:35:36;;;;;;;21.95;16.00;;;5.10;56.10;;;;;;2077178;28;20030;-68
2022/03/10 01:36:37;;;;;;;17.13;13.48;;;5.10;56.20;;;;;;2080790;28;20025;-68
2022/03/10 01:37:38;;;;;;;21.65;16.02;;;5.10;56.20;;;;;;2079742;28;20352;-68
2022/03/10 01:38:39;;;;;;;20.45;15.90;;;5.10;56.20;;;;;;2076088;28;20026;-68
2022/03/10 01:39:40;;;;;;;19.80;15.20;;;5.10;56.60;;;;;;2079859;28;20031;-68
2022/03/10 01:40:44;;;;;;;20.35;16.42;;;5.00;56.60;;;;;;2077537;28;20370;-68
2022/03/10 01:41:45;;;;;;;22.75;15.52;;;5.00;56.60;;;;;;2079492;28;20049;-68
2022/03/10 01:42:50;;;;;;;26.75;15.93;;;4.90;56.50;;;;;;2079223;28;20024;-68
2022/03/10 01:43:58;;;;;;;17.40;12.85;;;4.90;56.70;;;;;;2078782;28;20531;-68
2022/03/10 01:44:58;;;;;;;18.13;13.35;;;4.90;56.80;;;;;;2080624;28;20025;-68
2022/03/10 01:46:02;;;;;;;18.80;15.05;;;4.80;56.80;;;;;;2077197;28;20458;-68
2022/03/10 01:47:03;;;;;;;19.52;14.32;;;4.80;56.80;;;;;;2079764;28;20032;-68
2022/03/10 01:48:04;;;;;;;19.30;13.38;;;4.80;56.80;;;;;;2080139;28;20017;-68
2022/03/10 01:49:06;;;;;;;21.45;14.80;;;4.80;56.90;;;;;;2081019;28;20025;-68
2022/03/10 01:50:08;;;;;;;17.67;13.95;;;4.80;56.90;;;;;;2081972;28;20018;-67
2022/03/10 01:51:08;;;;;;;19.17;15.73;;;4.80;57.10;;;;;;2078341;28;20022;-68
2022/03/10 01:52:09;;;;;;;20.10;14.15;;;4.70;57.10;;;;;;2081132;28;20107;-68
2022/03/10 01:53:10;;;;;;;21.92;15.82;;;4.70;57.00;;;;;;2081224;28;20030;-68
2022/03/10 01:54:11;;;;;;;21.98;15.65;;;4.70;57.20;;;;;;2080094;28;20539;-68
2022/03/10 01:55:12;;;;;;;18.23;14.80;;;4.70;57.30;;;;;;2072246;28;20155;-68
2022/03/10 01:56:12;;;;;;;19.17;14.18;;;4.70;57.40;;;;;;2075883;28;20030;-67
2022/03/10 01:57:14;;;;;;;19.35;13.80;;;4.70;57.40;;;;;;2073243;28;20519;-68
2022/03/10 01:58:14;;;;;;;16.50;13.63;;;4.60;57.40;;;;;;2073586;28;20430;-68
2022/03/10 01:59:15;;;;;;;20.90;15.52;;;4.60;57.40;;;;;;2079892;28;20083;-68
2022/03/10 02:00:16;;;;;;;18.15;14.73;;;4.60;57.50;;;;;;2080898;28;20033;-68
2022/03/10 02:01:18;;;;;;;21.38;14.63;;;4.60;57.50;;;;;;2080316;28;20044;-68
2022/03/10 02:02:18;;;;;;;19.50;15.90;;;4.50;57.50;;;;;;2078037;28;20031;-68
2022/03/10 02:03:19;;;;;;;15.48;13.05;;;4.50;57.60;;;;;;2077254;28;20025;-67
2022/03/10 02:04:19;;;;;;;18.08;14.35;;;4.50;57.50;;;;;;2074587;28;20033;-68
2022/03/10 02:05:20;;;;;;;21.33;14.95;;;4.50;57.50;;;;;;2075469;28;20030;-68
2022/03/10 02:06:21;;;;;;;17.75;13.77;;;4.50;57.80;;;;;;2082652;28;20527;-68
2022/03/10 02:10:19;;;;;;;18.60;14.85;;;4.40;58.30;;;;;;2078930;28;20038;-67
2022/03/10 02:11:20;;;;;;;21.48;15.45;;;4.30;58.40;;;;;;2076985;28;20022;-68
2022/03/10 02:12:20;;;;;;;19.70;14.52;;;4.30;58.70;;;;;;2075796;28;20474;-68
2022/03/10 02:13:21;;;;;;;20.95;15.50;;;4.30;58.70;;;;;;2087966;28;20013;-68
2022/03/10 02:17:20;;;;;;;19.45;15.82;;;4.20;59.00;;;;;;2079876;28;20388;-68
2022/03/10 02:18:21;;;;;;;24.75;15.80;;;4.10;59.00;;;;;;2079349;28;20029;-68
2022/03/10 02:19:22;;;;;;;19.10;13.57;;;4.00;59.40;;;;;;2078240;28;20033;-68
2022/03/10 02:20:22;;;;;;;20.83;15.35;;;4.00;59.20;;;;;;2076895;28;20132;-68
2022/03/10 02:21:23;;;;;;;20.63;16.50;;;4.00;59.10;;;;;;2083660;28;20061;-68
2022/03/10 02:22:26;;;;;;;23.83;16.35;;;4.00;59.40;;;;;;2075565;28;20045;-68
2022/03/10 02:23:27;;;;;;;18.80;14.35;;;4.00;59.60;;;;;;2076767;28;20029;-68
2022/03/10 02:24:27;;;;;;;21.20;14.75;;;4.00;59.60;;;;;;2080328;28;20108;-67
2022/03/10 02:25:28;;;;;;;19.63;15.43;;;3.90;59.60;;;;;;2076437;28;20034;-68
2022/03/10 02:26:28;;;;;;;21.08;15.15;;;3.90;59.80;;;;;;2077762;28;20037;-68
2022/03/10 02:27:29;;;;;;;19.30;14.93;;;3.90;59.90;;;;;;2077544;28;20083;-67
2022/03/10 02:28:31;;;;;;;18.67;15.52;;;3.90;60.00;;;;;;2081381;28;20080;-68
2022/03/10 02:29:32;;;;;;;20.88;15.20;;;3.90;59.90;;;;;;2080313;28;20141;-68
2022/03/10 02:30:34;;;;;;;21.23;16.58;;;3.90;60.20;;;;;;2080540;28;20033;-68
2022/03/10 02:31:34;;;;;;;23.95;16.50;;;3.80;60.40;;;;;;2082655;28;20040;-68
2022/03/10 02:32:35;;;;;;;21.65;15.80;;;3.80;60.70;;;;;;2080177;28;20445;-68
2022/03/10 02:33:36;;;;;;;23.02;16.48;;;3.80;60.90;;;;;;2076132;28;20124;-68
2022/03/10 02:34:37;;;;;;;25.75;17.10;;;3.80;61.00;;;;;;2076583;28;20064;-68
2022/03/10 02:35:38;;;;;;;23.70;17.30;;;3.70;61.20;;;;;;2076304;28;20032;-67
2022/03/10 02:36:38;;;;;;;21.42;15.13;;;3.70;61.10;;;;;;2076624;28;20034;-68
2022/03/10 02:37:39;;;;;;;23.55;17.10;;;3.70;61.00;;;;;;2077669;28;20073;-68
2022/03/10 02:38:40;;;;;;;20.95;16.33;;;3.70;61.30;;;;;;2077874;28;20029;-68
2022/03/10 02:39:42;;;;;;;25.88;17.67;;;3.70;61.60;;;;;;2079096;28;20026;-67
2022/03/10 02:40:42;;;;;;;23.52;17.23;;;3.70;62.00;;;;;;2075654;28;20108;-67
2022/03/10 02:41:43;;;;;;;23.35;16.80;;;3.60;62.10;;;;;;2076411;28;20027;-68
2022/03/10 02:42:44;;;;;;;22.95;16.63;;;3.70;62.20;;;;;;2074487;28;20052;-68
2022/03/10 02:43:44;;;;;;;21.85;17.63;;;3.60;62.20;;;;;;2079294;28;20037;-68
2022/03/10 02:44:47;;;;;;;22.42;16.95;;;3.60;62.40;;;;;;2079851;28;20072;-67
2022/03/10 02:45:48;;;;;;;22.98;16.88;;;3.60;62.60;;;;;;2081689;28;20021;-68
2022/03/10 02:46:48;;;;;;;25.25;16.42;;;3.60;62.50;;;;;;2078422;28;20020;-68
2022/03/10 02:47:50;;;;;;;20.83;16.08;;;3.60;62.60;;;;;;2078922;28;20021;-67
2022/03/10 02:48:50;;;;;;;21.80;15.50;;;3.60;62.10;;;;;;2077561;28;20043;-68
2022/03/10 02:49:51;;;;;;;26.02;16.25;;;3.60;62.10;;;;;;2078164;28;20056;-68
2022/03/10 02:50:51;;;;;;;24.33;15.85;;;3.60;62.30;;;;;;2075590;28;20020;-68
2022/03/10 02:51:52;;;;;;;22.02;15.68;;;3.60;62.30;;;;;;2083769;28;20029;-68
2022/03/10 02:52:52;;;;;;;24.33;15.98;;;3.60;62.20;;;;;;2073264;28;20512;-69
2022/03/10 02:53:53;;;;;;;25.10;16.10;;;3.60;62.30;;;;;;2074428;28;20105;-68
2022/03/10 02:54:53;;;;;;;22.05;15.40;;;3.60;61.90;;;;;;2074362;28;20030;-68
2022/03/10 02:55:54;;;;;;;24.20;15.77;;;3.60;61.80;;;;;;2073120;28;20556;-68
2022/03/10 02:56:54;;;;;;;20.77;15.63;;;3.70;61.70;;;;;;2072331;28;20022;-67
2022/03/10 02:57:55;;;;;;;22.30;15.20;;;3.70;61.40;;;;;;2074416;28;20014;-68
2022/03/10 02:58:55;;;;;;;22.33;15.55;;;3.70;61.30;;;;;;2075251;28;20067;-68
2022/03/10 02:59:56;;;;;;;25.83;15.70;;;3.80;61.00;;;;;;2080338;28;20024;-67
2022/03/10 03:00:57;;;;;;;22.20;15.32;;;3.90;60.80;;;;;;2082450;28;20017;-68
2022/03/10 03:01:58;;;;;;;21.90;14.88;;;3.90;60.50;;;;;;2081948;28;20024;-69
2022/03/10 03:02:59;;;;;;;19.77;15.25;;;4.00;61.10;;;;;;2079688;28;20036;-68
2022/03/10 03:03:59;;;;;;;24.50;16.30;;;4.00;60.20;;;;;;2076090;28;20038;-68
2022/03/10 03:05:00;;;;;;;26.60;15.98;;;4.10;60.20;;;;;;2078664;28;20041;-68
2022/03/10 03:06:00;;;;;;;24.10;16.35;;;4.10;60.20;;;;;;2078160;28;20032;-68
2022/03/10 03:07:01;;;;;;;25.08;15.20;;;4.10;60.10;;;;;;2076782;28;20032;-68
2022/03/10 03:08:01;;;;;;;19.35;14.68;;;4.10;60.00;;;;;;2080884;28;20480;-68
2022/03/10 03:09:02;;;;;;;17.92;14.60;;;4.10;59.90;;;;;;2078588;28;20020;-68
2022/03/10 03:10:03;;;;;;;21.80;15.70;;;4.10;59.90;;;;;;2074453;28;20448;-68
2022/03/10 03:11:03;;;;;;;21.33;15.07;;;4.10;59.80;;;;;;2080579;28;20014;-68
2022/03/10 03:12:04;;;;;;;22.27;16.00;;;4.20;59.60;;;;;;2077220;28;21433;-68
2022/03/10 03:13:06;;;;;;;23.23;15.43;;;4.20;59.40;;;;;;2078681;28;20051;-68
2022/03/10 03:14:07;;;;;;;20.85;15.77;;;4.30;59.40;;;;;;2077444;28;20032;-68
2022/03/10 03:15:08;;;;;;;20.08;14.63;;;4.30;59.40;;;;;;2077836;28;20557;-68
2022/03/10 03:16:08;;;;;;;21.90;14.77;;;4.30;59.00;;;;;;2083340;28;20057;-68
2022/03/10 03:17:09;;;;;;;21.08;15.07;;;4.40;59.00;;;;;;2078467;28;20446;-68
2022/03/10 03:18:09;;;;;;;23.17;15.43;;;4.40;59.30;;;;;;2081085;28;20025;-68
2022/03/10 03:19:10;;;;;;;25.70;15.70;;;4.40;59.10;;;;;;2081630;28;20693;-68
2022/03/10 03:20:14;;;;;;;18.77;14.40;;;4.50;58.90;;;;;;2077681;28;20024;-68
2022/03/10 03:21:14;;;;;;;19.80;14.02;;;4.50;58.90;;;;;;2075959;28;20032;-68
2022/03/10 03:22:15;;;;;;;22.30;14.50;;;4.50;58.80;;;;;;2074949;28;20026;-68
2022/03/10 03:23:17;;;;;;;21.63;14.15;;;4.50;58.60;;;;;;2077569;28;20034;-68
2022/03/10 03:24:18;;;;;;;22.52;14.45;;;4.50;58.60;;;;;;2077915;28;20362;-68
2022/03/10 03:25:19;;;;;;;23.52;14.45;;;4.60;58.70;;;;;;2077746;28;20387;-68
2022/03/10 03:26:19;;;;;;;19.80;14.27;;;4.60;58.60;;;;;;2081140;28;20017;-67
2022/03/10 03:27:20;;;;;;;19.15;13.60;;;4.60;58.40;;;;;;2080430;28;20022;-68
2022/03/10 03:28:21;;;;;;;16.65;13.40;;;4.60;58.30;;;;;;2077960;28;20362;-68
2022/03/10 03:29:21;;;;;;;18.67;13.77;;;4.60;58.30;;;;;;2078073;28;20018;-68
2022/03/10 03:30:22;;;;;;;21.77;14.55;;;4.60;58.20;;;;;;2074155;28;20018;-68
2022/03/10 03:31:22;;;;;;;19.50;15.13;;;4.70;58.00;;;;;;2077799;28;20030;-68
2022/03/10 03:32:23;;;;;;;19.00;13.88;;;4.70;58.20;;;;;;2082983;28;20021;-68
2022/03/10 03:33:24;;;;;;;22.70;15.10;;;4.70;58.20;;;;;;2078792;28;20069;-68
2022/03/10 03:34:24;;;;;;;19.42;13.88;;;4.70;58.00;;;;;;2080818;28;20037;-68
2022/03/10 03:35:25;;;;;;;19.70;14.10;;;4.70;57.90;;;;;;2074243;28;20112;-68
2022/03/10 03:36:26;;;;;;;18.83;13.43;;;4.70;58.40;;;;;;2079144;28;20030;-68
2022/03/10 03:37:26;;;;;;;19.20;14.27;;;4.80;57.70;;;;;;2078173;28;20034;-68
2022/03/10 03:38:27;;;;;;;20.35;14.32;;;4.80;57.60;;;;;;2078046;28;20037;-68
2022/03/10 03:39:27;;;;;;;19.33;14.43;;;4.80;57.60;;;;;;2076660;28;20033;-68
2022/03/10 03:40:28;;;;;;;20.63;14.57;;;4.80;57.50;;;;;;2083073;28;20026;-68
2022/03/10 03:41:28;;;;;;;20.33;14.65;;;4.80;57.60;;;;;;2078902;28;20041;-68
2022/03/10 03:42:34;;;;;;;18.77;13.70;;;4.80;57.60;;;;;;2081007;28;20036;-68
2022/03/10 03:43:34;;;;;;;16.58;12.98;;;4.80;57.60;;;;;;2078791;28;20026;-68
2022/03/10 03:44:34;;;;;;;17.08;13.07;;;4.80;57.50;;;;;;2080222;28;20025;-68
2022/03/10 03:45:35;;;;;;;17.63;13.60;;;4.80;57.60;;;;;;2076907;28;20041;-68
2022/03/10 03:46:37;;;;;;;18.40;13.57;;;4.80;57.60;;;;;;2076986;28;20026;-68
2022/03/10 03:47:38;;;;;;;21.23;14.45;;;4.90;57.50;;;;;;2083805;28;20429;-68
2022/03/10 03:48:39;;;;;;;20.58;15.45;;;4.80;57.50;;;;;;2081705;28;20096;-68
2022/03/10 03:49:39;;;;;;;21.92;14.52;;;4.80;57.60;;;;;;2078799;28;20069;-68
2022/03/10 03:50:40;;;;;;;18.13;13.40;;;4.80;57.90;;;;;;2080273;28;20033;-68
2022/03/10 03:51:42;;;;;;;21.33;14.82;;;4.80;58.40;;;;;;2075918;28;20385;-68
2022/03/10 03:52:42;;;;;;;19.10;14.15;;;4.80;58.50;;;;;;2078315;28;20110;-68
2022/03/10 03:53:43;;;;;;;20.35;14.30;;;4.80;58.50;;;;;;2077406;28;20022;-68
2022/03/10 03:54:43;;;;;;;19.77;14.35;;;4.70;58.70;;;;;;2078429;28;20030;-68
2022/03/10 03:55:44;;;;;;;20.80;15.05;;;4.70;58.70;;;;;;2074656;28;20025;-68
2022/03/10 03:56:44;;;;;;;19.83;15.05;;;4.70;58.90;;;;;;2072227;28;20513;-68
2022/03/10 03:57:45;;;;;;;21.08;14.27;;;4.70;59.10;;;;;;2072829;28;20034;-67
2022/03/10 03:58:45;;;;;;;18.42;14.95;;;4.70;58.90;;;;;;2080439;28;20053;-68
2022/03/10 03:59:46;;;;;;;20.75;15.18;;;4.70;59.00;;;;;;2078824;28;20092;-68
2022/03/10 04:00:46;;;;;;;19.15;14.50;;;4.70;59.30;;;;;;2078788;28;20017;-68
2022/03/10 04:01:47;;;;;;;22.65;15.20;;;4.60;59.40;;;;;;2077339;28;20395;-68
2022/03/10 04:02:48;;;;;;;18.23;14.70;;;4.60;59.60;;;;;;2083219;28;20024;-68
2022/03/10 04:03:48;;;;;;;19.67;13.90;;;4.60;59.80;;;;;;2081430;28;20039;-68
2022/03/10 04:04:49;;;;;;;20.10;15.32;;;4.60;59.90;;;;;;2079211;28;20025;-71
2022/03/10 04:05:49;;;;;;;19.10;15.57;;;4.60;59.90;;;;;;2080254;28;20024;-68
2022/03/10 04:06:50;;;;;;;17.27;13.82;;;4.50;60.20;;;;;;2075630;28;20101;-68
2022/03/10 04:07:50;;;;;;;21.58;15.25;;;4.50;60.60;;;;;;2079036;28;20021;-68
2022/03/10 04:08:51;;;;;;;18.48;14.63;;;4.50;60.70;;;;;;2074724;28;20114;-68
2022/03/10 04:09:51;;;;;;;19.45;15.07;;;4.50;60.60;;;;;;2076132;28;20397;-68
2022/03/10 04:10:52;;;;;;;20.80;14.95;;;4.50;60.50;;;;;;2082723;28;20013;-67
2022/03/10 04:11:53;;;;;;;19.60;13.82;;;4.40;60.60;;;;;;2081015;28;20021;-67
2022/03/10 04:12:54;;;;;;;19.02;14.30;;;4.40;60.30;;;;;;2076306;28;20060;-68
2022/03/10 04:13:54;;;;;;;22.45;14.77;;;4.40;60.20;;;;;;2080818;28;20448;-68
2022/03/10 04:14:55;;;;;;;21.50;14.73;;;4.30;60.40;;;;;;2077977;28;20032;-68
2022/03/10 04:15:56;;;;;;;17.50;12.93;;;4.30;60.50;;;;;;2078807;28;20018;-68
2022/03/10 04:16:56;;;;;;;17.55;13.73;;;4.30;60.30;;;;;;2076448;28;20105;-68
2022/03/10 04:17:57;;;;;;;18.08;14.85;;;4.30;60.20;;;;;;2078289;28;20040;-68
2022/03/10 04:18:57;;;;;;;19.38;13.98;;;4.30;60.30;;;;;;2083253;28;20385;-68
2022/03/10 04:19:59;;;;;;;19.10;14.23;;;4.20;60.40;;;;;;2082403;28;20020;-67
2022/03/10 04:20:59;;;;;;;19.20;14.30;;;4.20;60.30;;;;;;2077494;28;20572;-67
2022/03/10 04:22:00;;;;;;;17.33;13.93;;;4.20;60.50;;;;;;2081084;28;21026;-68
2022/03/10 04:23:01;;;;;;;20.35;14.27;;;4.10;60.50;;;;;;2080394;28;20018;-67
2022/03/10 04:24:02;;;;;;;18.40;13.60;;;4.10;60.30;;;;;;2080163;28;20108;-68
2022/03/10 04:25:04;;;;;;;21.08;13.40;;;4.10;60.30;;;;;;2076477;28;20026;-67
2022/03/10 04:26:05;;;;;;;16.58;13.57;;;4.10;60.40;;;;;;2077664;28;20041;-67
2022/03/10 04:27:06;;;;;;;19.13;13.27;;;4.00;60.30;;;;;;2083283;28;20028;-68
2022/03/10 04:28:07;;;;;;;18.25;13.32;;;4.00;60.30;;;;;;2081460;28;20060;-67
2022/03/10 04:29:08;;;;;;;17.30;13.77;;;4.00;60.40;;;;;;2081976;28;20399;-67
2022/03/10 04:30:09;;;;;;;19.73;13.52;;;4.00;60.40;;;;;;2077009;28;20014;-68
2022/03/10 04:31:09;;;;;;;19.60;13.80;;;4.00;60.70;;;;;;2080638;28;20370;-68
2022/03/10 04:32:10;;;;;;;15.45;13.38;;;3.90;60.60;;;;;;2081996;28;20026;-68
2022/03/10 04:33:10;;;;;;;17.88;13.68;;;3.90;60.50;;;;;;2077222;28;20028;-68
2022/03/10 04:34:11;;;;;;;17.15;13.75;;;3.90;60.90;;;;;;2078009;28;20420;-67
2022/03/10 04:35:14;;;;;;;21.17;14.02;;;3.80;61.00;;;;;;2076939;28;20402;-67
2022/03/10 04:36:15;;;;;;;19.73;14.20;;;3.80;61.20;;;;;;2082043;28;20037;-67
2022/03/10 04:37:15;;;;;;;17.50;14.18;;;3.80;61.20;;;;;;2082246;28;20026;-67
2022/03/10 04:38:16;;;;;;;16.70;13.48;;;3.80;61.20;;;;;;2077510;28;20071;-68
2022/03/10 04:39:16;;;;;;;16.60;13.27;;;3.70;62.00;;;;;;2080741;28;20026;-67
2022/03/10 04:40:17;;;;;;;16.17;12.40;;;3.70;61.60;;;;;;2080918;28;20075;-68
2022/03/10 04:41:18;;;;;;;22.10;15.27;;;3.70;61.50;;;;;;2078637;28;20034;-68
2022/03/10 04:42:18;;;;;;;19.00;14.60;;;3.70;61.70;;;;;;2076816;28;20053;-67
2022/03/10 04:43:19;;;;;;;19.23;14.82;;;3.60;62.20;;;;;;2075706;28;20023;-67
2022/03/10 04:44:20;;;;;;;17.73;13.93;;;3.60;63.40;;;;;;2083137;28;20038;-67
2022/03/10 04:45:21;;;;;;;18.40;13.68;;;3.60;62.80;;;;;;2081603;28;20021;-68
2022/03/10 04:46:22;;;;;;;19.02;14.20;;;3.60;62.90;;;;;;2078149;28;20068;-68
2022/03/10 04:47:23;;;;;;;18.95;14.18;;;3.50;63.00;;;;;;2079595;28;20036;-68
2022/03/10 04:48:24;;;;;;;18.27;13.82;;;3.50;63.00;;;;;;2078954;28;20467;-67
2022/03/10 04:49:24;;;;;;;20.33;14.88;;;3.50;63.10;;;;;;2079833;28;20433;-67
2022/03/10 04:50:25;;;;;;;18.40;14.13;;;3.50;63.50;;;;;;2077953;28;20691;-67
2022/03/10 04:51:25;;;;;;;20.27;13.98;;;3.50;63.60;;;;;;2078863;28;20386;-68
2022/03/10 04:52:27;;;;;;;19.60;13.80;;;3.40;63.50;;;;;;2084438;28;20038;-68
2022/03/10 04:53:28;;;;;;;18.77;13.20;;;3.40;63.10;;;;;;2078483;28;20473;-67
2022/03/10 04:54:28;;;;;;;19.10;13.50;;;3.40;63.10;;;;;;2077341;28;20423;-67
2022/03/10 04:55:29;;;;;;;17.30;12.38;;;3.40;63.10;;;;;;2074657;28;20033;-67
2022/03/10 04:56:30;;;;;;;20.30;14.57;;;3.30;63.10;;;;;;2073083;28;20069;-67
2022/03/10 04:57:30;;;;;;;20.40;13.95;;;3.30;63.00;;;;;;2075785;28;20026;-68
2022/03/10 04:58:31;;;;;;;18.70;12.73;;;3.30;63.50;;;;;;2075626;28;20061;-68
2022/03/10 04:59:32;;;;;;;16.48;13.10;;;3.30;63.20;;;;;;2079842;28;20093;-67
2022/03/10 05:00:32;;;;;;;18.67;13.85;;;3.30;63.40;;;;;;2083112;28;20018;-67
2022/03/10 05:01:33;;;;;;;17.40;13.00;;;3.30;63.70;;;;;;2082125;28;20025;-67
2022/03/10 05:02:33;;;;;;;20.92;13.90;;;3.30;63.70;;;;;;2077020;28;20030;-68
2022/03/10 05:03:34;;;;;;;18.38;13.82;;;3.30;63.70;;;;;;2077887;28;20037;-67
2022/03/10 05:04:34;;;;;;;23.27;13.57;;;3.30;64.20;;;;;;2077408;28;20096;-67
2022/03/10 05:05:35;;;;;;;19.02;13.02;;;3.30;64.20;;;;;;2079458;28;20025;-68
2022/03/10 05:06:35;;;;;;;22.60;13.35;;;3.30;64.20;;;;;;2084273;28;20405;-68
2022/03/10 05:07:36;;;;;;;21.00;13.23;;;3.30;64.10;;;;;;2080205;28;20026;-68
2022/03/10 05:08:36;;;;;;;19.95;14.25;;;3.30;64.30;;;;;;2081685;28;20038;-67
2022/03/10 05:09:37;;;;;;;23.70;13.25;;;3.30;64.70;;;;;;2077791;28;20096;-67
2022/03/10 05:10:37;;;;;;;17.85;13.30;;;3.30;64.70;;;;;;2080314;28;20034;-68
2022/03/10 05:11:38;;;;;;;20.02;13.70;;;3.30;65.00;;;;;;2077890;28;20102;-67
2022/03/10 05:13:01;;;;;;;15.73;12.88;;;3.30;65.10;;;;;;2075915;28;20734;-68
2022/03/10 05:14:02;;;;;;;19.92;12.95;;;3.30;65.40;;;;;;2083298;28;20534;-67
2022/03/10 05:15:03;;;;;;;16.55;12.85;;;3.30;65.50;;;;;;2083221;28;20415;-67
2022/03/10 05:16:04;;;;;;;17.92;11.85;;;3.30;65.40;;;;;;2080887;28;20051;-67
2022/03/10 05:17:04;;;;;;;17.10;12.07;;;3.30;65.00;;;;;;2077858;28;20030;-67
2022/03/10 05:18:05;;;;;;;17.50;12.80;;;3.30;64.60;;;;;;2077243;28;20105;-67
2022/03/10 05:19:06;;;;;;;19.13;12.77;;;3.30;64.70;;;;;;2081602;28;20080;-67